createdAt,value
2023-02-21T02:22:26.402Z,93261.00
2023-02-21T02:37:26.242Z,93235.00
2023-02-21T02:38:26.343Z,93233.00
2023-02-21T02:39:26.305Z,93241.00
2023-02-21T02:40:26.364Z,93237.00
2023-02-21T02:41:26.469Z,93231.00
2023-02-21T02:42:27.401Z,93233.00
2023-02-21T02:43:26.481Z,93233.00
2023-02-21T02:44:27.400Z,93233.00
2023-02-21T02:45:26.550Z,93239.00
2023-02-21T02:46:26.665Z,93237.00
2023-02-21T02:47:26.631Z,93239.00
2023-02-21T02:48:26.689Z,93235.00
2023-02-21T02:49:26.718Z,93231.00
2023-02-21T02:50:26.765Z,93231.00
2023-02-21T02:51:26.811Z,93231.00
2023-02-21T02:52:26.847Z,93231.00
2023-02-21T02:53:26.886Z,93233.00
2023-02-21T02:54:26.936Z,93231.00
2023-02-21T02:55:26.969Z,93231.00
2023-02-21T02:56:27.017Z,93231.00
2023-02-21T02:57:27.412Z,93235.00
2023-02-21T02:58:27.087Z,93233.00
2023-02-21T02:59:27.133Z,93225.00
2023-02-21T03:00:27.172Z,93225.00
2023-02-21T03:01:27.236Z,93225.00
2023-02-21T03:02:27.268Z,93223.00
2023-02-21T03:03:27.327Z,93223.00
2023-02-21T03:04:27.350Z,93220.00
2023-02-21T03:05:27.387Z,93221.00
2023-02-21T03:06:27.436Z,93220.00
2023-02-21T03:07:27.491Z,93223.00
2023-02-21T03:08:27.521Z,93223.00
2023-02-21T03:09:27.565Z,93220.00
2023-02-21T03:10:27.602Z,93221.00
2023-02-21T03:11:27.664Z,93220.00
2023-02-21T03:12:27.697Z,93220.00
2023-02-21T03:13:27.764Z,93218.00
2023-02-21T03:14:27.797Z,93221.00
2023-02-21T03:15:27.834Z,93216.00
2023-02-21T03:16:27.883Z,93221.00
2023-02-21T03:17:27.929Z,93231.00
2023-02-21T03:19:28.023Z,93221.00
2023-02-21T03:20:28.064Z,93220.00
2023-02-21T03:21:28.117Z,93218.00
2023-02-21T03:22:28.148Z,93214.00
2023-02-21T03:23:28.188Z,93218.00
2023-02-21T03:24:28.220Z,93220.00
2023-02-21T03:25:28.274Z,93218.00
2023-02-21T03:26:28.328Z,93214.00
2023-02-21T03:27:28.362Z,93214.00
2023-02-21T03:28:28.913Z,93212.00
2023-02-21T03:29:28.438Z,93206.00
2023-02-21T03:30:28.532Z,93208.00
2023-02-21T06:24:31.706Z,93200.00
2023-02-21T07:19:33.419Z,93241.00
2023-02-21T07:21:33.515Z,93243.00
2023-02-21T07:22:33.514Z,93241.00
2023-02-21T07:32:33.729Z,93241.00
2023-02-21T07:33:33.723Z,93239.00
2023-02-21T07:46:33.757Z,93243.00
2023-02-21T07:51:33.729Z,93241.00
2023-02-21T07:52:33.728Z,93239.00
2023-02-21T07:54:33.805Z,93239.00
2023-02-21T07:55:33.852Z,93243.00
2023-02-21T07:57:33.902Z,93237.00
2023-02-21T07:58:33.926Z,93237.00
2023-02-21T07:59:33.949Z,93233.00
2023-02-21T08:00:33.981Z,93239.00
2023-02-21T08:01:34.097Z,93235.00
2023-02-21T08:02:33.999Z,93233.00
2023-02-21T08:03:34.026Z,93235.00
2023-02-21T08:04:34.054Z,93239.00
2023-02-21T08:05:34.118Z,93237.00
2023-02-21T08:06:34.095Z,93241.00
2023-02-21T08:07:34.124Z,93241.00
2023-02-21T08:08:34.178Z,93235.00
2023-02-21T08:09:34.226Z,93241.00
2023-02-21T08:18:34.576Z,93235.00
2023-02-21T08:19:34.619Z,93235.00
2023-02-21T08:20:34.675Z,93237.00
2023-02-21T09:30:35.993Z,93168.00
2023-02-21T09:34:35.935Z,93163.00
2023-02-21T14:21:42.154Z,92679.00
2023-02-21T14:31:42.190Z,92675.00
2023-02-21T14:34:41.746Z,92681.00
2023-02-21T14:35:41.755Z,92681.00
2023-02-21T14:36:41.787Z,92679.00
2023-02-21T14:37:42.243Z,92679.00
2023-02-21T14:38:42.674Z,92679.00
2023-02-21T14:39:41.880Z,92677.00
2023-02-21T14:40:41.905Z,92677.00
2023-02-21T14:41:41.916Z,92679.00
2023-02-21T14:42:41.944Z,92673.00
2023-02-21T14:43:42.049Z,92673.00
2023-02-21T14:44:42.003Z,92673.00
2023-02-21T14:45:42.211Z,92671.00
2023-02-21T14:46:42.055Z,92671.00
2023-02-21T14:47:42.067Z,92669.00
2023-02-21T14:48:42.095Z,92669.00
2023-02-21T14:49:42.116Z,92667.00
2023-02-21T14:50:42.150Z,92665.00
2023-02-21T14:51:42.163Z,92665.00
2023-02-21T14:52:42.181Z,92659.00
2023-02-21T14:53:42.222Z,92663.00
2023-02-21T14:54:42.240Z,92659.00
2023-02-21T14:55:42.274Z,92659.00
2023-02-21T14:56:42.294Z,92657.00
2023-02-21T14:57:42.313Z,92659.00
2023-02-21T14:58:42.333Z,92657.00
2023-02-21T14:59:42.357Z,92657.00
2023-02-21T15:00:42.434Z,92653.00
2023-02-21T15:01:42.401Z,92655.00
2023-02-21T15:02:42.435Z,92653.00
2023-02-21T15:03:42.475Z,92651.00
2023-02-21T15:04:42.488Z,92655.00
2023-02-21T15:05:42.508Z,92655.00
2023-02-21T15:06:42.541Z,92655.00
2023-02-21T15:07:42.570Z,92657.00
2023-02-21T15:08:42.606Z,92655.00
2023-02-21T15:09:42.612Z,92655.00
2023-02-21T15:10:42.645Z,92657.00
2023-02-21T15:11:42.694Z,92653.00
2023-02-21T15:12:42.761Z,92659.00
2023-02-21T15:13:42.869Z,92657.00
2023-02-21T15:14:42.758Z,92657.00
2023-02-21T15:15:42.802Z,92655.00
2023-02-21T15:16:42.877Z,92657.00
2023-02-21T15:17:42.857Z,92655.00
2023-02-21T15:18:42.886Z,92657.00
2023-02-21T15:19:42.958Z,92659.00
2023-02-21T15:20:42.956Z,92659.00
2023-02-21T15:21:42.985Z,92657.00
2023-02-21T15:22:43.677Z,92659.00
2023-02-21T15:23:43.065Z,92661.00
2023-02-21T15:24:43.086Z,92661.00
2023-02-21T15:25:43.113Z,92661.00
2023-02-21T15:26:43.152Z,92661.00
2023-02-21T15:27:43.208Z,92657.00
2023-02-21T15:28:44.163Z,92663.00
2023-02-21T15:29:43.241Z,92661.00
2023-02-21T15:30:43.410Z,92661.00
2023-02-21T15:31:43.327Z,92661.00
2023-02-21T15:32:43.348Z,92663.00
2023-02-21T15:33:43.516Z,92661.00
2023-02-21T15:34:43.435Z,92661.00
2023-02-21T15:35:43.471Z,92663.00
2023-02-21T15:36:43.501Z,92661.00
2023-02-21T15:37:43.556Z,92661.00
2023-02-21T15:38:43.585Z,92661.00
2023-02-21T15:39:44.178Z,92661.00
2023-02-21T15:40:44.184Z,92661.00
2023-02-21T15:41:43.709Z,92661.00
2023-02-21T15:42:43.746Z,92663.00
2023-02-21T15:43:43.879Z,92663.00
2023-02-21T15:44:43.826Z,92665.00
2023-02-21T15:45:43.911Z,92665.00
2023-02-21T15:46:43.920Z,92665.00
2023-02-21T15:47:43.956Z,92665.00
2023-02-21T15:48:44.000Z,92667.00
2023-02-21T15:49:44.046Z,92661.00
2023-02-21T15:50:44.071Z,92663.00
2023-02-21T15:51:44.129Z,92663.00
2023-02-21T15:52:44.170Z,92665.00
2023-02-21T15:53:44.212Z,92665.00
2023-02-21T15:54:44.259Z,92663.00
2023-02-21T15:55:44.294Z,92665.00
2023-02-21T15:56:44.336Z,92665.00
2023-02-21T15:57:44.373Z,92667.00
2023-02-21T15:58:44.423Z,92665.00
2023-02-21T15:59:44.470Z,92663.00
2023-02-21T16:00:44.543Z,92665.00
2023-02-21T16:01:44.762Z,92667.00
2023-02-21T16:02:44.629Z,92667.00
2023-02-21T16:03:45.181Z,92669.00
2023-02-21T16:04:44.687Z,92671.00
2023-02-21T16:05:44.721Z,92671.00
2023-02-21T16:06:44.789Z,92673.00
2023-02-21T16:07:46.169Z,92671.00
2023-02-21T16:08:44.854Z,92673.00
2023-02-21T16:09:44.902Z,92671.00
2023-02-21T16:10:44.950Z,92673.00
2023-02-21T16:11:44.987Z,92673.00
2023-02-21T16:12:45.081Z,92677.00
2023-02-21T16:13:45.084Z,92677.00
2023-02-21T16:14:45.132Z,92679.00
2023-02-21T16:15:45.199Z,92681.00
2023-02-21T16:16:45.239Z,92683.00
2023-02-21T16:17:45.277Z,92679.00
2023-02-21T16:18:45.327Z,92681.00
2023-02-21T16:19:47.816Z,92683.00
2023-02-21T16:20:45.617Z,92683.00
2023-02-21T16:21:45.677Z,92681.00
2023-02-21T16:23:07.822Z,92685.00
2023-02-21T16:24:45.748Z,92681.00
2023-02-21T16:25:45.741Z,92681.00
2023-02-21T16:26:45.819Z,92683.00
2023-02-21T16:27:45.763Z,92685.00
2023-02-21T16:28:45.799Z,92685.00
2023-02-21T16:29:45.840Z,92687.00
2023-02-21T16:30:45.836Z,92685.00
2023-02-21T16:31:45.837Z,92685.00
2023-02-21T16:32:46.204Z,92687.00
2023-02-21T16:33:45.841Z,92689.00
2023-02-21T16:34:45.892Z,92691.00
2023-02-21T17:01:47.564Z,92716.00
2023-02-21T17:02:47.556Z,92716.00
2023-02-21T17:03:47.615Z,92720.00
2023-02-21T17:04:47.669Z,92720.00
2023-02-21T17:05:47.739Z,92724.00
2023-02-21T17:06:47.803Z,92724.00
2023-02-21T17:07:47.861Z,92724.00
2023-02-21T17:08:47.974Z,92724.00
2023-02-21T17:14:48.376Z,92736.00
2023-02-21T17:15:48.383Z,92738.00
2023-02-21T17:18:48.580Z,92742.00
2023-02-21T17:19:48.641Z,92744.00
2023-02-21T18:06:52.238Z,92796.00
2023-02-21T18:08:51.749Z,92794.00
2023-02-21T18:09:51.746Z,92796.00
2023-02-21T18:10:51.874Z,92796.00
2023-02-21T18:11:51.870Z,92798.00
2023-02-21T18:12:51.961Z,92798.00
2023-02-21T18:13:52.030Z,92798.00
2023-02-21T18:14:52.092Z,92798.00
2023-02-21T18:15:52.205Z,92800.00
2023-02-21T18:16:52.199Z,92800.00
2023-02-21T18:17:52.269Z,92800.00
2023-02-21T18:18:52.296Z,92800.00
2023-02-21T18:19:52.363Z,92804.00
2023-02-21T18:20:52.396Z,92800.00
2023-02-21T18:21:52.440Z,92802.00
2023-02-21T18:22:52.510Z,92802.00
2023-02-21T18:23:52.565Z,92802.00
2023-02-21T18:24:52.690Z,92804.00
2023-02-21T18:25:53.241Z,92804.00
2023-02-21T18:26:52.738Z,92804.00
2023-02-21T18:27:52.784Z,92802.00
2023-02-21T18:28:52.827Z,92808.00
2023-02-21T18:29:52.854Z,92808.00
2023-02-21T18:30:52.882Z,92806.00
2023-02-21T18:31:52.950Z,92806.00
2023-02-21T18:32:52.973Z,92806.00
2023-02-21T18:33:53.014Z,92806.00
2023-02-21T18:34:53.137Z,92806.00
2023-02-21T18:35:53.114Z,92806.00
2023-02-21T18:36:53.169Z,92806.00
2023-02-21T18:37:53.191Z,92804.00
2023-02-21T18:38:53.238Z,92808.00
2023-02-21T18:39:53.338Z,92808.00
2023-02-21T18:40:53.389Z,92808.00
2023-02-21T18:41:53.413Z,92808.00
2023-02-21T18:42:53.434Z,92806.00
2023-02-21T18:43:53.491Z,92808.00
2023-02-21T18:44:53.556Z,92808.00
2023-02-21T18:45:53.596Z,92810.00
2023-02-21T18:46:53.626Z,92808.00
2023-02-21T18:47:53.665Z,92808.00
2023-02-21T18:48:53.702Z,92808.00
2023-02-21T18:49:56.378Z,92808.00
2023-02-21T18:50:53.724Z,92810.00
2023-02-21T18:51:53.726Z,92808.00
2023-02-21T18:52:53.737Z,92808.00
2023-02-21T18:53:53.749Z,92812.00
2023-02-21T18:54:53.748Z,92812.00
2023-02-21T18:55:53.765Z,92812.00
2023-02-21T18:56:53.774Z,92812.00
2023-02-21T18:57:53.773Z,92814.00
2023-02-21T18:58:53.800Z,92812.00
2023-02-21T18:59:53.780Z,92816.00
2023-02-21T19:24:53.859Z,92826.00
2023-02-21T19:25:53.876Z,92826.00
2023-02-21T19:26:53.922Z,92826.00
2023-02-21T19:27:53.879Z,92824.00
2023-02-21T19:28:53.880Z,92826.00
2023-02-21T19:29:53.898Z,92824.00
2023-02-21T19:30:53.905Z,92824.00
2023-02-21T19:31:54.142Z,92822.00
2023-02-21T19:32:53.990Z,92824.00
2023-02-21T19:33:53.919Z,92824.00
2023-02-21T19:34:53.944Z,92822.00
2023-02-21T19:35:53.927Z,92824.00
2023-02-21T19:36:53.952Z,92824.00
2023-02-21T19:37:54.011Z,92824.00
2023-02-21T19:38:53.959Z,92826.00
2023-02-21T19:39:53.960Z,92826.00
2023-02-21T19:40:53.977Z,92828.00
2023-02-21T19:41:53.964Z,92828.00
2023-02-21T19:42:53.975Z,92830.00
2023-02-21T19:43:53.979Z,92830.00
2023-02-21T19:44:54.001Z,92832.00
2023-02-21T19:45:54.013Z,92834.00
2023-02-21T19:46:54.004Z,92838.00
2023-02-21T19:47:54.019Z,92838.00
2023-02-21T19:48:54.100Z,92840.00
2023-02-21T19:49:54.024Z,92847.00
2023-02-21T19:50:54.022Z,92847.00
2023-02-21T19:51:54.048Z,92847.00
2023-02-21T19:52:54.040Z,92849.00
2023-02-21T19:53:54.063Z,92851.00
2023-02-21T19:54:54.051Z,92855.00
2023-02-21T19:55:54.055Z,92855.00
2023-02-21T19:56:54.071Z,92855.00
2023-02-21T19:57:54.075Z,92859.00
2023-02-21T19:58:54.083Z,92857.00
2023-02-21T19:59:54.085Z,92859.00
2023-02-21T20:00:54.153Z,92857.00
2023-02-21T20:01:54.136Z,92859.00
2023-02-21T20:02:54.114Z,92859.00
2023-02-21T20:03:54.160Z,92859.00
2023-02-21T20:04:54.126Z,92859.00
2023-02-21T20:05:54.131Z,92859.00
2023-02-21T20:06:54.157Z,92861.00
2023-02-21T20:07:54.161Z,92861.00
2023-02-21T20:08:54.162Z,92861.00
2023-02-21T20:09:54.179Z,92861.00
2023-02-21T20:10:54.185Z,92861.00
2023-02-21T20:11:54.193Z,92859.00
2023-02-21T20:12:54.202Z,92863.00
2023-02-21T20:13:54.204Z,92859.00
2023-02-21T20:14:54.216Z,92857.00
2023-02-21T20:15:54.224Z,92861.00
2023-02-21T20:16:54.304Z,92859.00
2023-02-21T20:17:54.246Z,92861.00
2023-02-21T20:18:54.251Z,92859.00
2023-02-21T20:19:54.302Z,92859.00
2023-02-21T20:20:54.262Z,92861.00
2023-02-21T20:21:54.280Z,92863.00
2023-02-21T20:22:54.288Z,92861.00
2023-02-21T20:23:54.304Z,92861.00
2023-02-21T20:24:55.286Z,92861.00
2023-02-21T20:25:54.305Z,92861.00
2023-02-21T20:26:54.458Z,92861.00
2023-02-21T20:27:54.339Z,92861.00
2023-02-21T20:28:55.295Z,92865.00
2023-02-21T20:29:54.340Z,92863.00
2023-02-21T20:30:54.447Z,92863.00
2023-02-21T20:31:54.370Z,92865.00
2023-02-21T20:32:54.369Z,92863.00
2023-02-21T20:33:54.397Z,92865.00
2023-02-21T20:34:55.289Z,92865.00
2023-02-21T20:35:54.401Z,92863.00
2023-02-21T20:36:54.418Z,92863.00
2023-02-21T20:37:54.413Z,92863.00
2023-02-21T20:38:54.505Z,92867.00
2023-02-21T20:39:54.432Z,92865.00
2023-02-21T20:40:54.437Z,92865.00
2023-02-21T20:41:54.443Z,92867.00
2023-02-21T20:42:54.447Z,92869.00
2023-02-21T20:43:54.798Z,92871.00
2023-02-21T20:44:54.463Z,92871.00
2023-02-21T20:45:54.502Z,92869.00
2023-02-21T20:46:54.479Z,92873.00
2023-02-21T20:47:54.482Z,92871.00
2023-02-21T20:48:54.493Z,92871.00
2023-02-21T20:49:54.478Z,92873.00
2023-02-21T20:50:54.506Z,92871.00
2023-02-21T20:51:54.505Z,92873.00
2023-02-21T20:52:54.542Z,92871.00
2023-02-21T20:53:54.526Z,92871.00
2023-02-21T20:54:54.520Z,92873.00
2023-02-21T20:55:54.515Z,92873.00
2023-02-21T20:56:54.515Z,92873.00
2023-02-21T20:57:54.546Z,92873.00
2023-02-21T20:58:54.532Z,92871.00
2023-02-21T20:59:54.537Z,92869.00
2023-02-21T21:00:54.547Z,92869.00
2023-02-21T21:01:54.596Z,92871.00
2023-02-21T21:02:54.548Z,92871.00
2023-02-21T21:03:54.548Z,92871.00
2023-02-21T21:04:54.553Z,92869.00
2023-02-21T21:05:54.568Z,92873.00
2023-02-21T21:06:54.640Z,92873.00
2023-02-21T21:07:54.570Z,92873.00
2023-02-21T21:08:54.574Z,92875.00
2023-02-21T21:09:54.587Z,92875.00
2023-02-21T21:10:54.591Z,92875.00
2023-02-21T21:11:54.589Z,92873.00
2023-02-21T21:12:54.813Z,92871.00
2023-02-21T21:13:54.645Z,92875.00
2023-02-21T21:14:54.602Z,92871.00
2023-02-21T21:15:54.625Z,92873.00
2023-02-21T21:16:54.615Z,92873.00
2023-02-21T21:17:54.611Z,92869.00
2023-02-21T21:18:54.637Z,92871.00
2023-02-21T21:19:54.637Z,92871.00
2023-02-21T21:20:54.633Z,92871.00
2023-02-21T21:21:54.649Z,92871.00
2023-02-21T21:22:54.655Z,92869.00
2023-02-21T21:23:54.649Z,92871.00
2023-02-21T21:24:54.674Z,92871.00
2023-02-21T21:25:54.663Z,92871.00
2023-02-21T21:26:54.694Z,92873.00
2023-02-21T21:27:54.708Z,92871.00
2023-02-21T21:28:54.700Z,92873.00
2023-02-21T21:29:54.691Z,92873.00
2023-02-21T21:30:54.837Z,92871.00
2023-02-21T21:31:54.803Z,92873.00
2023-02-21T21:32:54.812Z,92871.00
2023-02-21T21:33:54.732Z,92871.00
2023-02-21T21:34:54.738Z,92871.00
2023-02-21T21:35:54.757Z,92871.00
2023-02-21T21:36:54.763Z,92871.00
2023-02-21T21:37:54.781Z,92873.00
2023-02-21T21:38:54.768Z,92873.00
2023-02-21T21:39:54.786Z,92873.00
2023-02-21T21:40:54.781Z,92873.00
2023-02-21T21:41:54.805Z,92875.00
2023-02-21T21:42:54.816Z,92873.00
2023-02-21T21:43:54.821Z,92875.00
2023-02-21T21:44:54.839Z,92869.00
2023-02-21T21:45:54.853Z,92873.00
2023-02-21T21:46:54.843Z,92873.00
2023-02-21T21:47:54.854Z,92871.00
2023-02-21T21:48:54.861Z,92865.00
2023-02-21T21:49:54.873Z,92871.00
2023-02-21T21:50:54.866Z,92871.00
2023-02-21T21:51:54.889Z,92871.00
2023-02-21T21:52:54.891Z,92869.00
2023-02-21T21:53:54.909Z,92875.00
2023-02-21T21:54:54.909Z,92869.00
2023-02-21T21:55:54.917Z,92875.00
2023-02-21T21:56:54.920Z,92869.00
2023-02-21T21:57:55.017Z,92869.00
2023-02-21T21:58:54.954Z,92867.00
2023-02-21T21:59:54.960Z,92865.00
2023-02-21T22:00:54.966Z,92865.00
2023-02-21T22:01:54.980Z,92867.00
2023-02-21T22:02:55.016Z,92865.00
2023-02-21T22:03:54.994Z,92863.00
2023-02-21T22:04:54.990Z,92865.00
2023-02-21T22:05:55.009Z,92863.00
2023-02-21T22:06:55.020Z,92861.00
2023-02-21T22:07:55.050Z,92861.00
2023-02-21T22:08:55.048Z,92863.00
2023-02-21T22:09:55.046Z,92859.00
2023-02-21T22:10:55.065Z,92861.00
2023-02-21T22:11:55.062Z,92861.00
2023-02-21T22:12:55.071Z,92859.00
2023-02-21T22:13:55.075Z,92861.00
2023-02-21T22:14:55.081Z,92863.00
2023-02-21T22:15:55.101Z,92863.00
2023-02-21T22:16:55.094Z,92861.00
2023-02-21T22:17:55.109Z,92863.00
2023-02-21T22:18:55.109Z,92861.00
2023-02-21T22:19:55.116Z,92859.00
2023-02-21T22:20:55.134Z,92861.00
2023-02-21T22:21:55.145Z,92861.00
2023-02-21T22:22:55.143Z,92863.00
2023-02-21T22:23:55.334Z,92863.00
2023-02-21T22:24:55.158Z,92861.00
2023-02-21T22:25:55.179Z,92863.00
2023-02-21T22:26:55.183Z,92861.00
2023-02-21T22:27:55.197Z,92861.00
2023-02-21T22:28:55.237Z,92861.00
2023-02-21T22:29:55.210Z,92861.00
2023-02-21T22:30:55.242Z,92859.00
2023-02-21T22:31:55.307Z,92859.00
2023-02-21T22:32:55.248Z,92857.00
2023-02-21T22:33:55.248Z,92857.00
2023-02-21T22:34:55.268Z,92855.00
2023-02-21T22:35:55.280Z,92855.00
2023-02-21T22:36:55.293Z,92855.00
2023-02-21T22:37:55.277Z,92853.00
2023-02-21T22:38:55.300Z,92853.00
2023-02-21T22:39:55.319Z,92853.00
2023-02-21T22:40:55.311Z,92855.00
2023-02-21T22:41:55.324Z,92853.00
2023-02-21T22:42:55.329Z,92855.00
2023-02-21T22:43:55.345Z,92857.00
2023-02-21T22:44:55.350Z,92857.00
2023-02-21T22:45:55.366Z,92857.00
2023-02-21T22:46:55.433Z,92855.00
2023-02-21T22:47:55.369Z,92855.00
2023-02-21T22:48:55.397Z,92853.00
2023-02-21T22:49:55.401Z,92853.00
2023-02-21T22:50:55.434Z,92853.00
2023-02-21T22:51:55.421Z,92853.00
2023-02-21T22:52:55.429Z,92853.00
2023-02-21T22:53:55.422Z,92851.00
2023-02-21T22:54:55.439Z,92853.00
2023-02-21T22:55:55.835Z,92851.00
2023-02-21T22:56:55.452Z,92849.00
2023-02-21T22:57:55.458Z,92840.00
2023-02-21T22:58:55.464Z,92847.00
2023-02-21T22:59:55.850Z,92838.00
2023-02-21T23:00:55.482Z,92847.00
2023-02-21T23:01:55.504Z,92847.00
2023-02-21T23:02:55.538Z,92840.00
2023-02-21T23:03:55.545Z,92847.00
2023-02-21T23:04:55.605Z,92840.00
2023-02-21T23:05:55.602Z,92849.00
2023-02-21T23:06:55.652Z,92847.00
2023-02-21T23:07:55.651Z,92840.00
2023-02-21T23:08:55.669Z,92840.00
2023-02-21T23:09:55.703Z,92847.00
2023-02-21T23:10:55.723Z,92838.00
2023-02-21T23:11:55.759Z,92840.00
2023-02-21T23:12:55.778Z,92838.00
2023-02-21T23:13:55.785Z,92838.00
2023-02-21T23:14:55.813Z,92836.00
2023-02-21T23:15:56.123Z,92836.00
2023-02-21T23:16:55.852Z,92836.00
2023-02-21T23:17:55.881Z,92834.00
2023-02-21T23:18:55.907Z,92834.00
2023-02-21T23:20:55.953Z,92834.00
2023-02-21T23:21:55.974Z,92834.00
